sensor_id;sensor_type;location;lat;lon;timestamp;pressure;altitude;pressure_sealevel;temperature;humidity
34235;BME280;20500;49.856;20.290;2023-11-21T00:00:53;98062.96;;;8.03;98.68
34235;BME280;20500;49.856;20.290;2023-11-21T00:03:59;98066.45;;;8.05;98.83
34235;BME280;20500;49.856;20.290;2023-11-21T00:07:06;98064.46;;;8.07;98.69
34235;BME280;20500;49.856;20.290;2023-11-21T00:10:12;98064.17;;;8.06;98.70
34235;BME280;20500;49.856;20.290;2023-11-21T00:13:20;98066.05;;;8.04;98.62
34235;BME280;20500;49.856;20.290;2023-11-21T00:16:26;98070.88;;;8.03;98.68
34235;BME280;20500;49.856;20.290;2023-11-21T00:19:32;98074.16;;;8.01;98.57
34235;BME280;20500;49.856;20.290;2023-11-21T00:22:39;98075.84;;;7.99;98.42
34235;BME280;20500;49.856;20.290;2023-11-21T00:25:46;98072.52;;;8.00;98.63
34235;BME280;20500;49.856;20.290;2023-11-21T00:28:52;98073.27;;;8.01;98.76
34235;BME280;20500;49.856;20.290;2023-11-21T00:31:59;98071.95;;;7.99;98.56
34235;BME280;20500;49.856;20.290;2023-11-21T00:35:06;98071.77;;;7.97;98.63
34235;BME280;20500;49.856;20.290;2023-11-21T00:38:11;98071.77;;;7.97;98.65
34235;BME280;20500;49.856;20.290;2023-11-21T00:41:17;98077.42;;;7.97;98.76
34235;BME280;20500;49.856;20.290;2023-11-21T00:44:23;98082.37;;;7.98;98.83
34235;BME280;20500;49.856;20.290;2023-11-21T00:47:29;98083.05;;;7.98;98.85
34235;BME280;20500;49.856;20.290;2023-11-21T00:50:35;98081.67;;;7.99;98.82
34235;BME280;20500;49.856;20.290;2023-11-21T00:53:40;98083.70;;;7.99;98.78
34235;BME280;20500;49.856;20.290;2023-11-21T00:56:46;98081.48;;;7.98;98.75
34235;BME280;20500;49.856;20.290;2023-11-21T00:59:51;98078.00;;;7.97;98.79
34235;BME280;20500;49.856;20.290;2023-11-21T01:02:57;98073.42;;;7.97;98.85
34235;BME280;20500;49.856;20.290;2023-11-21T01:06:03;98074.99;;;7.96;98.73
34235;BME280;20500;49.856;20.290;2023-11-21T01:09:11;98075.29;;;7.95;98.91
34235;BME280;20500;49.856;20.290;2023-11-21T01:12:17;98078.88;;;7.97;98.82
34235;BME280;20500;49.856;20.290;2023-11-21T01:15:23;98085.51;;;7.96;98.77
34235;BME280;20500;49.856;20.290;2023-11-21T01:18:30;98083.85;;;7.93;98.74
34235;BME280;20500;49.856;20.290;2023-11-21T01:21:36;98085.00;;;7.93;98.75
34235;BME280;20500;49.856;20.290;2023-11-21T01:24:41;98083.30;;;7.93;98.96
34235;BME280;20500;49.856;20.290;2023-11-21T01:27:47;98084.05;;;7.95;98.87
34235;BME280;20500;49.856;20.290;2023-11-21T01:30:53;98081.55;;;7.96;98.79
34235;BME280;20500;49.856;20.290;2023-11-21T01:34:01;98084.96;;;7.96;98.83
34235;BME280;20500;49.856;20.290;2023-11-21T01:37:07;98087.02;;;7.91;98.55
34235;BME280;20500;49.856;20.290;2023-11-21T01:40:13;98083.58;;;7.84;98.57
34235;BME280;20500;49.856;20.290;2023-11-21T01:43:19;98087.95;;;7.82;98.75
34235;BME280;20500;49.856;20.290;2023-11-21T01:46:26;98090.39;;;7.83;98.84
34235;BME280;20500;49.856;20.290;2023-11-21T01:49:32;98083.48;;;7.83;98.89
34235;BME280;20500;49.856;20.290;2023-11-21T01:52:40;98081.80;;;7.82;98.78
34235;BME280;20500;49.856;20.290;2023-11-21T01:55:46;98082.27;;;7.83;98.74
34235;BME280;20500;49.856;20.290;2023-11-21T01:58:53;98082.31;;;7.84;98.88
34235;BME280;20500;49.856;20.290;2023-11-21T02:01:59;98079.10;;;7.84;98.85
34235;BME280;20500;49.856;20.290;2023-11-21T02:05:06;98078.23;;;7.85;98.88
34235;BME280;20500;49.856;20.290;2023-11-21T02:08:13;98083.67;;;7.86;98.85
34235;BME280;20500;49.856;20.290;2023-11-21T02:11:19;98081.85;;;7.86;98.84
34235;BME280;20500;49.856;20.290;2023-11-21T02:14:24;98093.20;;;7.88;98.94
34235;BME280;20500;49.856;20.290;2023-11-21T02:17:31;98098.02;;;7.90;99.04
34235;BME280;20500;49.856;20.290;2023-11-21T02:20:37;98099.00;;;7.91;98.82
34235;BME280;20500;49.856;20.290;2023-11-21T02:23:46;98096.04;;;7.88;98.67
34235;BME280;20500;49.856;20.290;2023-11-21T02:26:52;98095.42;;;7.86;98.78
34235;BME280;20500;49.856;20.290;2023-11-21T02:29:58;98096.37;;;7.84;98.78
34235;BME280;20500;49.856;20.290;2023-11-21T02:33:04;98100.79;;;7.84;98.79
34235;BME280;20500;49.856;20.290;2023-11-21T02:36:11;98101.09;;;7.82;98.82
34235;BME280;20500;49.856;20.290;2023-11-21T02:39:17;98104.77;;;7.81;98.83
34235;BME280;20500;49.856;20.290;2023-11-21T02:42:26;98103.80;;;7.79;98.75
34235;BME280;20500;49.856;20.290;2023-11-21T02:45:32;98106.48;;;7.76;98.78
34235;BME280;20500;49.856;20.290;2023-11-21T02:48:37;98107.35;;;7.75;98.79
34235;BME280;20500;49.856;20.290;2023-11-21T02:51:43;98103.48;;;7.76;98.74
34235;BME280;20500;49.856;20.290;2023-11-21T02:54:49;98102.72;;;7.75;98.73
34235;BME280;20500;49.856;20.290;2023-11-21T02:57:54;98100.20;;;7.75;98.70
34235;BME280;20500;49.856;20.290;2023-11-21T03:01:02;98093.88;;;7.76;98.81
34235;BME280;20500;49.856;20.290;2023-11-21T03:04:10;98097.26;;;7.78;98.69
34235;BME280;20500;49.856;20.290;2023-11-21T03:07:15;98096.14;;;7.78;98.55
34235;BME280;20500;49.856;20.290;2023-11-21T03:10:21;98100.30;;;7.78;98.47
34235;BME280;20500;49.856;20.290;2023-11-21T03:13:26;98102.64;;;7.78;98.50
34235;BME280;20500;49.856;20.290;2023-11-21T03:16:33;98106.80;;;7.78;98.27
34235;BME280;20500;49.856;20.290;2023-11-21T03:19:37;98107.81;;;7.77;98.31
34235;BME280;20500;49.856;20.290;2023-11-21T03:22:43;98109.33;;;7.75;98.33
34235;BME280;20500;49.856;20.290;2023-11-21T03:25:49;98113.65;;;7.74;98.39
34235;BME280;20500;49.856;20.290;2023-11-21T03:28:55;98117.71;;;7.75;98.38
34235;BME280;20500;49.856;20.290;2023-11-21T03:32:01;98113.11;;;7.74;98.34
34235;BME280;20500;49.856;20.290;2023-11-21T03:35:08;98111.31;;;7.74;98.24
34235;BME280;20500;49.856;20.290;2023-11-21T03:38:14;98109.34;;;7.72;98.14
34235;BME280;20500;49.856;20.290;2023-11-21T03:41:20;98107.52;;;7.71;98.05
34235;BME280;20500;49.856;20.290;2023-11-21T03:44:25;98109.63;;;7.70;98.02
34235;BME280;20500;49.856;20.290;2023-11-21T03:47:31;98113.59;;;7.70;98.12
34235;BME280;20500;49.856;20.290;2023-11-21T03:50:37;98119.15;;;7.70;98.02
34235;BME280;20500;49.856;20.290;2023-11-21T03:53:43;98121.73;;;7.70;98.01
34235;BME280;20500;49.856;20.290;2023-11-21T03:56:49;98115.39;;;7.70;97.90
34235;BME280;20500;49.856;20.290;2023-11-21T03:59:55;98116.95;;;7.71;97.93
34235;BME280;20500;49.856;20.290;2023-11-21T04:03:01;98121.88;;;7.69;97.77
34235;BME280;20500;49.856;20.290;2023-11-21T04:06:08;98130.66;;;7.68;97.77
34235;BME280;20500;49.856;20.290;2023-11-21T04:09:14;98131.98;;;7.68;97.51
34235;BME280;20500;49.856;20.290;2023-11-21T04:12:20;98130.56;;;7.67;97.50
34235;BME280;20500;49.856;20.290;2023-11-21T04:15:25;98133.31;;;7.70;97.55
34235;BME280;20500;49.856;20.290;2023-11-21T04:18:31;98134.89;;;7.72;97.54
34235;BME280;20500;49.856;20.290;2023-11-21T04:21:37;98133.68;;;7.73;97.52
34235;BME280;20500;49.856;20.290;2023-11-21T04:24:43;98133.14;;;7.73;97.37
34235;BME280;20500;49.856;20.290;2023-11-21T04:27:48;98128.81;;;7.73;97.39
34235;BME280;20500;49.856;20.290;2023-11-21T04:30:54;98128.23;;;7.73;97.19
34235;BME280;20500;49.856;20.290;2023-11-21T04:34:00;98124.18;;;7.72;97.14
34235;BME280;20500;49.856;20.290;2023-11-21T04:37:08;98127.62;;;7.71;97.05
34235;BME280;20500;49.856;20.290;2023-11-21T04:40:15;98124.66;;;7.71;97.15
34235;BME280;20500;49.856;20.290;2023-11-21T04:43:20;98120.89;;;7.73;97.04
34235;BME280;20500;49.856;20.290;2023-11-21T04:46:26;98125.73;;;7.73;96.98
34235;BME280;20500;49.856;20.290;2023-11-21T04:49:32;98128.05;;;7.72;96.89
34235;BME280;20500;49.856;20.290;2023-11-21T04:52:38;98128.73;;;7.72;96.93
34235;BME280;20500;49.856;20.290;2023-11-21T04:55:44;98124.50;;;7.71;96.87
34235;BME280;20500;49.856;20.290;2023-11-21T04:58:50;98125.77;;;7.70;96.74
34235;BME280;20500;49.856;20.290;2023-11-21T05:01:56;98130.08;;;7.68;96.80
34235;BME280;20500;49.856;20.290;2023-11-21T05:05:02;98128.71;;;7.69;96.81
34235;BME280;20500;49.856;20.290;2023-11-21T05:08:10;98132.56;;;7.67;96.63
34235;BME280;20500;49.856;20.290;2023-11-21T05:11:25;98134.30;;;7.66;96.53
34235;BME280;20500;49.856;20.290;2023-11-21T05:14:31;98140.49;;;7.66;96.45
34235;BME280;20500;49.856;20.290;2023-11-21T05:17:38;98147.70;;;7.65;96.38
34235;BME280;20500;49.856;20.290;2023-11-21T05:20:46;98154.73;;;7.66;96.44
34235;BME280;20500;49.856;20.290;2023-11-21T05:23:53;98159.66;;;7.66;96.39
34235;BME280;20500;49.856;20.290;2023-11-21T05:26:59;98163.37;;;7.65;96.43
34235;BME280;20500;49.856;20.290;2023-11-21T05:30:06;98166.73;;;7.64;96.36
34235;BME280;20500;49.856;20.290;2023-11-21T05:33:14;98170.64;;;7.63;96.34
34235;BME280;20500;49.856;20.290;2023-11-21T05:36:19;98172.12;;;7.64;96.33
34235;BME280;20500;49.856;20.290;2023-11-21T05:39:25;98175.95;;;7.65;96.46
34235;BME280;20500;49.856;20.290;2023-11-21T05:42:32;98175.20;;;7.64;96.32
34235;BME280;20500;49.856;20.290;2023-11-21T05:45:38;98179.23;;;7.64;96.32
34235;BME280;20500;49.856;20.290;2023-11-21T05:48:44;98180.15;;;7.63;96.34
34235;BME280;20500;49.856;20.290;2023-11-21T05:51:49;98182.70;;;7.62;96.29
34235;BME280;20500;49.856;20.290;2023-11-21T05:54:58;98186.60;;;7.61;96.30
34235;BME280;20500;49.856;20.290;2023-11-21T05:58:04;98189.52;;;7.61;96.42
34235;BME280;20500;49.856;20.290;2023-11-21T06:01:10;98188.95;;;7.59;96.37
34235;BME280;20500;49.856;20.290;2023-11-21T06:04:17;98189.63;;;7.56;96.41
34235;BME280;20500;49.856;20.290;2023-11-21T06:07:23;98193.88;;;7.57;96.47
34235;BME280;20500;49.856;20.290;2023-11-21T06:10:29;98191.36;;;7.56;96.44
34235;BME280;20500;49.856;20.290;2023-11-21T06:13:33;98189.84;;;7.55;96.53
34235;BME280;20500;49.856;20.290;2023-11-21T06:16:39;98189.21;;;7.57;96.62
34235;BME280;20500;49.856;20.290;2023-11-21T06:19:44;98190.78;;;7.59;96.59
34235;BME280;20500;49.856;20.290;2023-11-21T06:22:51;98197.23;;;7.61;96.58
34235;BME280;20500;49.856;20.290;2023-11-21T06:25:57;98205.06;;;7.64;96.66
34235;BME280;20500;49.856;20.290;2023-11-21T06:29:03;98207.23;;;7.65;96.52
34235;BME280;20500;49.856;20.290;2023-11-21T06:32:09;98206.13;;;7.65;96.51
34235;BME280;20500;49.856;20.290;2023-11-21T06:35:15;98210.23;;;7.67;96.65
34235;BME280;20500;49.856;20.290;2023-11-21T06:38:21;98211.53;;;7.70;96.58
34235;BME280;20500;49.856;20.290;2023-11-21T06:41:27;98216.23;;;7.71;96.63
34235;BME280;20500;49.856;20.290;2023-11-21T06:44:34;98218.77;;;7.72;96.56
34235;BME280;20500;49.856;20.290;2023-11-21T06:47:41;98223.44;;;7.74;96.60
34235;BME280;20500;49.856;20.290;2023-11-21T06:50:48;98229.29;;;7.75;96.61
34235;BME280;20500;49.856;20.290;2023-11-21T06:53:54;98232.27;;;7.77;96.61
34235;BME280;20500;49.856;20.290;2023-11-21T06:56:59;98230.34;;;7.78;96.53
34235;BME280;20500;49.856;20.290;2023-11-21T07:00:07;98231.56;;;7.79;96.51
34235;BME280;20500;49.856;20.290;2023-11-21T07:03:14;98235.36;;;7.80;96.55
34235;BME280;20500;49.856;20.290;2023-11-21T07:06:20;98235.38;;;7.81;96.60
34235;BME280;20500;49.856;20.290;2023-11-21T07:09:25;98233.83;;;7.81;96.46
34235;BME280;20500;49.856;20.290;2023-11-21T07:12:32;98237.27;;;7.83;96.56
34235;BME280;20500;49.856;20.290;2023-11-21T07:15:38;98241.33;;;7.84;96.59
34235;BME280;20500;49.856;20.290;2023-11-21T07:18:44;98242.88;;;7.83;96.67
34235;BME280;20500;49.856;20.290;2023-11-21T07:21:50;98249.09;;;7.84;96.73
34235;BME280;20500;49.856;20.290;2023-11-21T07:24:56;98255.85;;;7.85;96.68
34235;BME280;20500;49.856;20.290;2023-11-21T07:28:02;98251.96;;;7.84;96.66
34235;BME280;20500;49.856;20.290;2023-11-21T07:31:09;98258.65;;;7.82;96.52
34235;BME280;20500;49.856;20.290;2023-11-21T07:34:15;98261.34;;;7.80;96.51
34235;BME280;20500;49.856;20.290;2023-11-21T07:37:21;98264.20;;;7.79;96.52
34235;BME280;20500;49.856;20.290;2023-11-21T07:40:27;98266.67;;;7.75;96.59
34235;BME280;20500;49.856;20.290;2023-11-21T07:43:35;98268.55;;;7.73;96.59
34235;BME280;20500;49.856;20.290;2023-11-21T07:46:41;98267.98;;;7.71;96.51
34235;BME280;20500;49.856;20.290;2023-11-21T07:49:47;98269.70;;;7.71;96.57
34235;BME280;20500;49.856;20.290;2023-11-21T07:52:52;98265.73;;;7.74;96.62
34235;BME280;20500;49.856;20.290;2023-11-21T07:55:57;98266.58;;;7.77;96.70
34235;BME280;20500;49.856;20.290;2023-11-21T07:59:03;98270.58;;;7.79;96.63
34235;BME280;20500;49.856;20.290;2023-11-21T08:02:09;98274.50;;;7.79;96.66
34235;BME280;20500;49.856;20.290;2023-11-21T08:05:15;98275.52;;;7.81;96.72
34235;BME280;20500;49.856;20.290;2023-11-21T08:08:31;98272.77;;;7.81;96.58
34235;BME280;20500;49.856;20.290;2023-11-21T08:11:37;98274.09;;;7.81;96.56
34235;BME280;20500;49.856;20.290;2023-11-21T08:14:43;98275.52;;;7.83;96.55
34235;BME280;20500;49.856;20.290;2023-11-21T08:17:49;98279.81;;;7.87;96.60
34235;BME280;20500;49.856;20.290;2023-11-21T08:20:55;98282.38;;;7.88;96.56
34235;BME280;20500;49.856;20.290;2023-11-21T08:24:02;98278.97;;;7.89;96.64
34235;BME280;20500;49.856;20.290;2023-11-21T08:27:08;98278.87;;;7.93;96.71
34235;BME280;20500;49.856;20.290;2023-11-21T08:30:15;98282.95;;;7.93;96.54
34235;BME280;20500;49.856;20.290;2023-11-21T08:33:24;98290.13;;;7.95;96.75
34235;BME280;20500;49.856;20.290;2023-11-21T08:36:29;98289.82;;;7.95;96.65
34235;BME280;20500;49.856;20.290;2023-11-21T08:39:37;98291.11;;;7.94;96.70
34235;BME280;20500;49.856;20.290;2023-11-21T08:42:43;98295.56;;;7.99;96.72
34235;BME280;20500;49.856;20.290;2023-11-21T08:45:49;98298.63;;;8.02;96.79
34235;BME280;20500;49.856;20.290;2023-11-21T08:48:55;98299.23;;;8.06;96.83
34235;BME280;20500;49.856;20.290;2023-11-21T08:52:01;98305.20;;;8.08;96.71
34235;BME280;20500;49.856;20.290;2023-11-21T08:55:08;98307.54;;;8.10;96.75
34235;BME280;20500;49.856;20.290;2023-11-21T08:58:16;98309.42;;;8.11;96.78
34235;BME280;20500;49.856;20.290;2023-11-21T09:01:22;98312.30;;;8.12;96.70
34235;BME280;20500;49.856;20.290;2023-11-21T09:04:29;98313.72;;;8.11;96.69
34235;BME280;20500;49.856;20.290;2023-11-21T09:07:35;98309.42;;;8.10;96.76
34235;BME280;20500;49.856;20.290;2023-11-21T09:10:41;98308.47;;;8.11;96.73
34235;BME280;20500;49.856;20.290;2023-11-21T09:13:47;98306.41;;;8.13;96.65
34235;BME280;20500;49.856;20.290;2023-11-21T09:16:53;98304.73;;;8.15;96.75
34235;BME280;20500;49.856;20.290;2023-11-21T09:20:00;98300.86;;;8.15;96.65
34235;BME280;20500;49.856;20.290;2023-11-21T09:23:08;98294.46;;;8.15;96.61
34235;BME280;20500;49.856;20.290;2023-11-21T09:26:14;98288.36;;;8.16;96.83
34235;BME280;20500;49.856;20.290;2023-11-21T09:29:20;98290.80;;;8.18;96.71
34235;BME280;20500;49.856;20.290;2023-11-21T09:32:26;98293.27;;;8.18;96.64
34235;BME280;20500;49.856;20.290;2023-11-21T09:35:32;98292.98;;;8.21;96.88
34235;BME280;20500;49.856;20.290;2023-11-21T09:38:37;98298.36;;;8.24;96.88
34235;BME280;20500;49.856;20.290;2023-11-21T09:41:46;98299.88;;;8.25;96.77
34235;BME280;20500;49.856;20.290;2023-11-21T09:44:56;98299.09;;;8.25;96.87
34235;BME280;20500;49.856;20.290;2023-11-21T09:48:06;98293.52;;;8.27;96.80
34235;BME280;20500;49.856;20.290;2023-11-21T09:51:13;98296.22;;;8.28;96.76
34235;BME280;20500;49.856;20.290;2023-11-21T09:54:19;98297.98;;;8.26;96.60
34235;BME280;20500;49.856;20.290;2023-11-21T09:57:26;98296.93;;;8.24;96.68
34235;BME280;20500;49.856;20.290;2023-11-21T10:00:32;98298.69;;;8.26;96.88
34235;BME280;20500;49.856;20.290;2023-11-21T10:03:37;98299.95;;;8.32;97.03
34235;BME280;20500;49.856;20.290;2023-11-21T10:06:43;98299.60;;;8.35;97.00
34235;BME280;20500;49.856;20.290;2023-11-21T10:09:51;98301.70;;;8.37;97.07
34235;BME280;20500;49.856;20.290;2023-11-21T10:12:59;98302.09;;;8.41;96.98
34235;BME280;20500;49.856;20.290;2023-11-21T10:16:09;98300.66;;;8.46;96.96
34235;BME280;20500;49.856;20.290;2023-11-21T10:19:16;98302.69;;;8.47;96.73
34235;BME280;20500;49.856;20.290;2023-11-21T10:22:23;98307.74;;;8.44;96.64
34235;BME280;20500;49.856;20.290;2023-11-21T10:25:30;98308.73;;;8.43;96.61
34235;BME280;20500;49.856;20.290;2023-11-21T10:28:38;98307.48;;;8.44;96.70
34235;BME280;20500;49.856;20.290;2023-11-21T10:31:44;98308.13;;;8.45;96.69
34235;BME280;20500;49.856;20.290;2023-11-21T10:34:58;98308.05;;;8.43;96.63
34235;BME280;20500;49.856;20.290;2023-11-21T10:38:10;98309.98;;;8.48;96.90
34235;BME280;20500;49.856;20.290;2023-11-21T10:41:19;98309.91;;;8.56;97.00
34235;BME280;20500;49.856;20.290;2023-11-21T10:44:25;98311.40;;;8.64;97.09
34235;BME280;20500;49.856;20.290;2023-11-21T10:47:32;98314.30;;;8.70;97.05
34235;BME280;20500;49.856;20.290;2023-11-21T10:50:40;98316.21;;;8.72;96.80
34235;BME280;20500;49.856;20.290;2023-11-21T10:53:45;98315.82;;;8.74;96.92
34235;BME280;20500;49.856;20.290;2023-11-21T10:56:56;98316.45;;;8.77;96.87
34235;BME280;20500;49.856;20.290;2023-11-21T11:00:04;98311.84;;;8.76;96.65
34235;BME280;20500;49.856;20.290;2023-11-21T11:03:11;98313.13;;;8.78;96.65
34235;BME280;20500;49.856;20.290;2023-11-21T11:06:22;98310.96;;;8.79;96.67
34235;BME280;20500;49.856;20.290;2023-11-21T11:09:32;98308.94;;;8.81;96.63
34235;BME280;20500;49.856;20.290;2023-11-21T11:12:38;98306.65;;;8.82;96.62
34235;BME280;20500;49.856;20.290;2023-11-21T11:15:48;98301.80;;;8.85;96.57
34235;BME280;20500;49.856;20.290;2023-11-21T11:18:54;98298.81;;;8.86;96.50
34235;BME280;20500;49.856;20.290;2023-11-21T11:22:07;98299.24;;;8.87;96.56
34235;BME280;20500;49.856;20.290;2023-11-21T11:25:27;98299.29;;;8.88;96.47
34235;BME280;20500;49.856;20.290;2023-11-21T11:28:44;98301.95;;;8.90;96.48
34235;BME280;20500;49.856;20.290;2023-11-21T11:31:59;98298.70;;;8.91;96.35
34235;BME280;20500;49.856;20.290;2023-11-21T11:35:19;98300.75;;;8.90;96.13
34235;BME280;20500;49.856;20.290;2023-11-21T11:38:33;98300.52;;;8.94;96.31
34235;BME280;20500;49.856;20.290;2023-11-21T11:41:42;98298.85;;;9.00;96.39
34235;BME280;20500;49.856;20.290;2023-11-21T11:44:51;98298.60;;;9.03;96.29
34235;BME280;20500;49.856;20.290;2023-11-21T11:47:59;98299.96;;;9.09;96.31
34235;BME280;20500;49.856;20.290;2023-11-21T11:51:10;98302.66;;;9.11;96.09
34235;BME280;20500;49.856;20.290;2023-11-21T11:54:36;98306.05;;;9.12;96.02
34235;BME280;20500;49.856;20.290;2023-11-21T11:57:43;98309.23;;;9.12;95.95
34235;BME280;20500;49.856;20.290;2023-11-21T12:00:51;98305.52;;;9.12;95.73
34235;BME280;20500;49.856;20.290;2023-11-21T12:04:31;98304.19;;;9.09;95.77
34235;BME280;20500;49.856;20.290;2023-11-21T12:07:44;98307.75;;;9.10;95.75
34235;BME280;20500;49.856;20.290;2023-11-21T12:10:52;98310.48;;;9.08;95.52
34235;BME280;20500;49.856;20.290;2023-11-21T12:13:59;98312.66;;;9.05;95.40
34235;BME280;20500;49.856;20.290;2023-11-21T12:17:05;98314.28;;;9.01;95.27
34235;BME280;20500;49.856;20.290;2023-11-21T12:20:13;98317.11;;;9.00;95.32
34235;BME280;20500;49.856;20.290;2023-11-21T12:23:22;98315.77;;;8.96;95.01
34235;BME280;20500;49.856;20.290;2023-11-21T12:26:29;98318.71;;;8.94;95.09
34235;BME280;20500;49.856;20.290;2023-11-21T12:29:35;98323.60;;;8.94;95.12
34235;BME280;20500;49.856;20.290;2023-11-21T12:32:42;98322.60;;;8.92;94.79
34235;BME280;20500;49.856;20.290;2023-11-21T12:35:50;98326.17;;;8.88;94.46
34235;BME280;20500;49.856;20.290;2023-11-21T12:38:57;98324.13;;;8.83;94.51
34235;BME280;20500;49.856;20.290;2023-11-21T12:42:04;98320.20;;;8.79;94.45
34235;BME280;20500;49.856;20.290;2023-11-21T12:45:20;98322.77;;;8.81;94.55
34235;BME280;20500;49.856;20.290;2023-11-21T12:48:26;98325.21;;;8.84;94.52
34235;BME280;20500;49.856;20.290;2023-11-21T12:51:32;98325.23;;;8.86;94.32
34235;BME280;20500;49.856;20.290;2023-11-21T12:54:38;98327.92;;;8.90;94.44
34235;BME280;20500;49.856;20.290;2023-11-21T12:57:44;98327.45;;;8.95;94.38
34235;BME280;20500;49.856;20.290;2023-11-21T13:00:50;98326.73;;;9.00;94.19
34235;BME280;20500;49.856;20.290;2023-11-21T13:03:59;98325.31;;;9.02;94.28
34235;BME280;20500;49.856;20.290;2023-11-21T13:07:08;98321.69;;;9.08;94.28
34235;BME280;20500;49.856;20.290;2023-11-21T13:10:19;98319.02;;;9.13;94.15
34235;BME280;20500;49.856;20.290;2023-11-21T13:13:30;98324.55;;;9.18;93.94
34235;BME280;20500;49.856;20.290;2023-11-21T13:16:37;98328.03;;;9.20;93.79
34235;BME280;20500;49.856;20.290;2023-11-21T13:19:46;98327.52;;;9.22;93.76
34235;BME280;20500;49.856;20.290;2023-11-21T13:22:54;98329.94;;;9.22;93.45
34235;BME280;20500;49.856;20.290;2023-11-21T13:26:01;98335.65;;;9.24;93.41
34235;BME280;20500;49.856;20.290;2023-11-21T13:29:11;98335.83;;;9.25;93.20
34235;BME280;20500;49.856;20.290;2023-11-21T13:32:17;98337.62;;;9.25;92.97
34235;BME280;20500;49.856;20.290;2023-11-21T13:35:27;98339.95;;;9.24;92.68
34235;BME280;20500;49.856;20.290;2023-11-21T13:38:37;98339.95;;;9.24;92.71
34235;BME280;20500;49.856;20.290;2023-11-21T13:41:47;98342.63;;;9.29;92.78
34235;BME280;20500;49.856;20.290;2023-11-21T13:44:59;98344.46;;;9.28;92.70
34235;BME280;20500;49.856;20.290;2023-11-21T13:48:06;98342.62;;;9.27;92.59
34235;BME280;20500;49.856;20.290;2023-11-21T13:51:14;98343.68;;;9.25;92.54
34235;BME280;20500;49.856;20.290;2023-11-21T13:54:22;98341.53;;;9.23;92.35
34235;BME280;20500;49.856;20.290;2023-11-21T13:57:30;98339.13;;;9.18;92.17
34235;BME280;20500;49.856;20.290;2023-11-21T14:00:37;98339.98;;;9.13;91.99
34235;BME280;20500;49.856;20.290;2023-11-21T14:03:49;98342.25;;;9.10;92.04
34235;BME280;20500;49.856;20.290;2023-11-21T14:07:01;98345.35;;;9.11;92.01
34235;BME280;20500;49.856;20.290;2023-11-21T14:10:25;98355.15;;;9.13;91.84
34235;BME280;20500;49.856;20.290;2023-11-21T14:13:30;98360.84;;;9.13;91.78
34235;BME280;20500;49.856;20.290;2023-11-21T14:16:37;98364.64;;;9.08;91.42
34235;BME280;20500;49.856;20.290;2023-11-21T14:19:43;98366.63;;;8.99;91.32
34235;BME280;20500;49.856;20.290;2023-11-21T14:22:49;98370.46;;;8.93;91.35
34235;BME280;20500;49.856;20.290;2023-11-21T14:25:53;98376.08;;;8.90;91.30
34235;BME280;20500;49.856;20.290;2023-11-21T14:29:00;98380.02;;;8.87;91.18
34235;BME280;20500;49.856;20.290;2023-11-21T14:32:08;98380.08;;;8.86;90.94
34235;BME280;20500;49.856;20.290;2023-11-21T14:35:14;98383.55;;;8.84;90.93
34235;BME280;20500;49.856;20.290;2023-11-21T14:38:20;98386.00;;;8.80;90.88
34235;BME280;20500;49.856;20.290;2023-11-21T14:41:26;98388.73;;;8.78;90.86
34235;BME280;20500;49.856;20.290;2023-11-21T14:44:33;98392.80;;;8.76;90.84
34235;BME280;20500;49.856;20.290;2023-11-21T14:47:43;98391.66;;;8.75;90.83
34235;BME280;20500;49.856;20.290;2023-11-21T14:50:55;98389.45;;;8.74;90.78
34235;BME280;20500;49.856;20.290;2023-11-21T14:54:15;98388.81;;;8.73;90.63
34235;BME280;20500;49.856;20.290;2023-11-21T14:57:29;98387.97;;;8.69;90.57
34235;BME280;20500;49.856;20.290;2023-11-21T15:00:36;98392.40;;;8.66;90.48
34235;BME280;20500;49.856;20.290;2023-11-21T15:03:49;98401.80;;;8.65;90.40
34235;BME280;20500;49.856;20.290;2023-11-21T15:06:55;98403.05;;;8.63;90.44
34235;BME280;20500;49.856;20.290;2023-11-21T15:10:03;98407.55;;;8.63;90.44
34235;BME280;20500;49.856;20.290;2023-11-21T15:13:15;98410.64;;;8.60;90.37
34235;BME280;20500;49.856;20.290;2023-11-21T15:16:21;98410.45;;;8.57;90.34
34235;BME280;20500;49.856;20.290;2023-11-21T15:19:25;98413.77;;;8.55;90.32
34235;BME280;20500;49.856;20.290;2023-11-21T15:22:32;98414.52;;;8.53;90.24
34235;BME280;20500;49.856;20.290;2023-11-21T15:25:38;98414.02;;;8.52;90.22
34235;BME280;20500;49.856;20.290;2023-11-21T15:28:44;98414.06;;;8.50;90.14
34235;BME280;20500;49.856;20.290;2023-11-21T15:31:50;98413.50;;;8.48;90.08
34235;BME280;20500;49.856;20.290;2023-11-21T15:35:00;98419.98;;;8.47;89.84
34235;BME280;20500;49.856;20.290;2023-11-21T15:38:06;98420.66;;;8.45;89.91
34235;BME280;20500;49.856;20.290;2023-11-21T15:41:12;98423.66;;;8.44;89.91
34235;BME280;20500;49.856;20.290;2023-11-21T15:44:18;98427.95;;;8.40;89.72
34235;BME280;20500;49.856;20.290;2023-11-21T15:47:23;98432.20;;;8.33;89.57
34235;BME280;20500;49.856;20.290;2023-11-21T15:50:29;98430.77;;;8.24;89.56
34235;BME280;20500;49.856;20.290;2023-11-21T15:53:36;98437.17;;;8.21;89.78
34235;BME280;20500;49.856;20.290;2023-11-21T15:56:42;98438.91;;;8.20;89.89
34235;BME280;20500;49.856;20.290;2023-11-21T15:59:49;98441.58;;;8.18;89.85
34235;BME280;20500;49.856;20.290;2023-11-21T16:02:54;98444.01;;;8.15;89.74
34235;BME280;20500;49.856;20.290;2023-11-21T16:06:02;98450.45;;;8.12;89.64
34235;BME280;20500;49.856;20.290;2023-11-21T16:09:09;98453.29;;;8.07;89.73
34235;BME280;20500;49.856;20.290;2023-11-21T16:12:25;98455.52;;;8.07;89.79
34235;BME280;20500;49.856;20.290;2023-11-21T16:15:30;98457.13;;;8.05;89.67
34235;BME280;20500;49.856;20.290;2023-11-21T16:18:38;98458.29;;;8.03;89.45
34235;BME280;20500;49.856;20.290;2023-11-21T16:21:46;98461.96;;;8.01;89.64
34235;BME280;20500;49.856;20.290;2023-11-21T16:24:52;98459.66;;;8.00;89.63
34235;BME280;20500;49.856;20.290;2023-11-21T16:27:58;98465.73;;;8.01;89.77
34235;BME280;20500;49.856;20.290;2023-11-21T16:31:09;98470.07;;;8.01;89.68